Chattanooga, TN (37415)

4:43 AM EST on January 18, 2017 (GMT -0500)
Hermit Hacienda | | Change Station

Elev 870 ft 35.14 °N, 85.29 °W | Updated 3 minutes ago

Overcast
Overcast
59.1 °F
Feels Like 59.1 °F
N
0.0
Wind Variable Wind from WSW
Gusts 0.0 mph

Today
High -- | Low -- °F
--% Chance of Precip.
Yesterday
High -- | Low -- °F
Precip. -- in
Pressure 30.10 in
Visibility 6.0 miles
Clouds Mostly Cloudy 2100 ft
Overcast 3000 ft
Dew Point 54 °F
Humidity 83%
Rainfall 0.00 in
Snow Depth Not available.
7:47 AM 5:55 PM
Waning Gibbous, 65% visible
METAR KCHA 180853Z AUTO 27007KT 6SM -RA BKN021 OVC030 17/13 A3011 RMK AO2 RAB51 SLP193 P0000 60000 T01670128 53007
Pressure 30.10 in
Visibility 6.0 miles
Clouds Mostly Cloudy 2100 ft
Overcast 3000 ft
Dew Point 54 °F
Humidity 83%
Rainfall 0.00 in
Snow Depth Not available.
7:47 AM 5:55 PM
Waning Gibbous, 65% visible
METAR KCHA 180853Z AUTO 27007KT 6SM -RA BKN021 OVC030 17/13 A3011 RMK AO2 RAB51 SLP193 P0000 60000 T01670128 53007

Get Your Daily Forecast Email!

Thanks for signing up!

Be on the lookout for a verification email in your inbox.

You'll start receiving the daily forecast at 8 AM.

×

10-Day Weather Forecast

Almanac

Astronomy

Jan. 18, 2017 Rise Set
Actual Time
Civil Twilight
Nautical Twilight
Astronomical Twilight
Moon
Length of Visible Light
Length of Day
Tomorrow will be .
, % of the Moon is Illuminated

Today's Extremes

State Highs State Lows

Community

WunderPhotos

Upload Photos

1,962,540 photos uploaded!

WunderBlog® & News

Nearby

Air Quality

  Air Quality AQ Index Pollutant
Not available.

Snow Depth

Station Depth Elevation

Earthquake Activity

City Distance Mag. Time & Date
Minimum magnitude displayed is 2.5.

Coastal Water Temperatures

Place Temperature

Stations

Nearby Weather Stations

Station Location Temp. Windchill Dew Point Humidity Wind Precip. Elev Updated Type
                   

Watches & Warnings

There are currently no watches in effect.